Time;durP1;ratioP1;P1;durP2;ratioP2;P2;SDS_P1;SDS_P2;PMS_P1;PMS_P2;Temp;Humidity;BMP_temperature;BMP_pressure;BME280_temperature;BME280_humidity;BME280_pressure;Samples;Min_cycle;Max_cycle;Signal;HPM_P1;HPM_P2
2021/01/20 00:01:38;;;;;;;4.65;2.17;;;5.10;83.60;;;;;;5093099;27;20150;-70
2021/01/20 00:04:04;;;;;;;7.85;2.80;;;5.40;83.70;;;;;;5090136;27;20075;-69
2021/01/20 00:06:31;;;;;;;5.88;2.80;;;5.10;83.50;;;;;;5093209;28;20048;-70
2021/01/20 00:08:57;;;;;;;5.13;2.20;;;5.20;83.20;;;;;;5089995;28;20555;-71
2021/01/20 00:11:25;;;;;;;4.32;2.45;;;5.20;83.20;;;;;;5093862;28;20380;-70
2021/01/20 00:13:53;;;;;;;3.65;2.45;;;5.20;82.50;;;;;;5093713;28;20047;-71
2021/01/20 00:16:20;;;;;;;4.90;2.50;;;5.10;82.80;;;;;;5094046;27;20483;-71
2021/01/20 00:18:46;;;;;;;3.83;2.33;;;5.20;83.00;;;;;;5098788;27;20076;-69
2021/01/20 00:21:13;;;;;;;12.27;2.65;;;5.20;82.70;;;;;;5091739;28;20052;-70
2021/01/20 00:23:39;;;;;;;6.22;2.35;;;5.40;82.60;;;;;;5092642;28;20143;-71
2021/01/20 00:26:05;;;;;;;7.78;2.22;;;5.30;82.10;;;;;;5092083;28;20044;-69
2021/01/20 00:28:32;;;;;;;8.75;2.50;;;5.30;81.90;;;;;;5090103;28;20055;-70
2021/01/20 00:30:58;;;;;;;4.35;2.08;;;5.40;81.90;;;;;;5093134;28;20040;-70
2021/01/20 00:33:24;;;;;;;8.82;2.78;;;5.40;82.00;;;;;;5092227;28;20475;-71
2021/01/20 00:35:54;;;;;;;7.75;2.78;;;5.30;81.70;;;;;;5093603;28;20043;-71
2021/01/20 00:38:20;;;;;;;3.72;2.20;;;5.50;82.10;;;;;;5092968;27;20040;-70
2021/01/20 00:40:46;;;;;;;5.28;2.08;;;5.50;81.50;;;;;;5097999;28;20055;-71
2021/01/20 00:43:13;;;;;;;7.60;2.50;;;5.40;81.20;;;;;;5093605;28;20613;-71
2021/01/20 00:45:39;;;;;;;5.10;1.45;;;5.50;81.30;;;;;;5094885;28;20102;-70
2021/01/20 00:48:10;;;;;;;5.30;2.78;;;5.50;81.00;;;;;;5093061;28;20560;-70
2021/01/20 00:50:37;;;;;;;6.47;2.28;;;5.50;81.10;;;;;;5094133;27;20118;-70
2021/01/20 00:53:04;;;;;;;7.97;2.50;;;5.40;81.30;;;;;;5100174;28;20048;-69
2021/01/20 00:55:30;;;;;;;5.20;2.40;;;5.40;81.50;;;;;;5094130;27;20086;-70
2021/01/20 00:57:56;;;;;;;6.60;2.58;;;5.30;81.60;;;;;;5091137;28;20075;-70
2021/01/20 01:00:23;;;;;;;4.80;2.72;;;5.30;81.60;;;;;;5091425;28;20524;-70
2021/01/20 01:02:50;;;;;;;5.35;2.47;;;5.50;81.60;;;;;;5091662;28;20534;-70
2021/01/20 01:05:17;;;;;;;7.32;2.35;;;5.50;81.80;;;;;;5092010;28;20123;-71
2021/01/20 01:07:44;;;;;;;5.65;2.78;;;5.50;81.60;;;;;;5091119;28;20131;-70
2021/01/20 01:10:11;;;;;;;7.88;2.58;;;5.30;81.40;;;;;;5094493;28;20047;-70
2021/01/20 01:12:38;;;;;;;7.45;2.90;;;5.30;81.00;;;;;;5092407;28;20590;-70
2021/01/20 01:15:05;;;;;;;5.30;2.47;;;5.40;81.40;;;;;;5093218;28;20078;-70
2021/01/20 01:17:32;;;;;;;4.38;2.35;;;5.40;81.60;;;;;;5091224;28;20458;-70
2021/01/20 01:19:58;;;;;;;10.07;2.58;;;5.30;81.30;;;;;;5092105;28;20043;-69
2021/01/20 01:22:24;;;;;;;7.00;2.70;;;5.30;81.10;;;;;;5090856;28;20394;-70
2021/01/20 01:24:51;;;;;;;6.85;2.40;;;5.30;81.10;;;;;;5094742;28;20470;-71
2021/01/20 01:27:17;;;;;;;6.80;2.75;;;5.50;81.40;;;;;;5092270;28;20126;-69
2021/01/20 01:29:43;;;;;;;4.22;2.40;;;5.40;81.10;;;;;;5090567;28;20048;-70
2021/01/20 01:32:09;;;;;;;4.82;2.35;;;5.40;81.20;;;;;;5095929;28;20154;-70
2021/01/20 01:34:36;;;;;;;6.75;2.90;;;5.40;80.90;;;;;;5093969;28;20044;-69
2021/01/20 01:37:03;;;;;;;6.70;2.75;;;5.40;81.10;;;;;;5093139;28;20052;-69
2021/01/20 01:39:30;;;;;;;9.18;2.90;;;5.40;81.20;;;;;;5091350;28;21104;-70
2021/01/20 01:41:56;;;;;;;4.72;2.30;;;5.40;81.20;;;;;;5092768;28;20044;-70
2021/01/20 01:44:22;;;;;;;4.07;2.40;;;5.50;81.20;;;;;;5090766;28;20075;-71
2021/01/20 01:46:48;;;;;;;5.28;2.70;;;5.60;81.60;;;;;;5091339;28;20727;-69
2021/01/20 01:49:15;;;;;;;4.85;2.90;;;5.50;81.40;;;;;;5091270;28;20063;-70
2021/01/20 01:51:41;;;;;;;5.75;2.92;;;5.40;81.40;;;;;;5097064;28;20044;-70
2021/01/20 01:54:09;;;;;;;7.22;3.33;;;5.50;82.00;;;;;;5098074;27;20135;-69
2021/01/20 01:56:36;;;;;;;5.57;2.90;;;5.40;81.80;;;;;;5092996;28;20481;-70
2021/01/20 01:59:02;;;;;;;5.72;2.58;;;5.40;81.90;;;;;;5090411;28;20130;-69
2021/01/20 02:01:29;;;;;;;7.95;3.17;;;5.60;82.30;;;;;;5091348;28;20132;-70
2021/01/20 02:03:55;;;;;;;5.38;2.53;;;5.40;81.90;;;;;;5091797;28;20047;-71
2021/01/20 02:06:22;;;;;;;5.32;2.45;;;5.40;81.80;;;;;;5090488;28;20052;-70
2021/01/20 02:08:49;;;;;;;6.25;2.80;;;5.50;82.40;;;;;;5090635;28;22378;-70
2021/01/20 02:11:33;;;;;;;7.78;2.70;;;5.30;82.30;;;;;;5091728;28;20137;-70
2021/01/20 02:14:28;;;;;;;5.95;2.45;;;5.10;82.40;;;;;;5089903;28;20085;-70
2021/01/20 02:17:12;;;;;;;4.10;2.35;;;5.20;82.50;;;;;;5088985;28;20055;-70
2021/01/20 02:20:07;;;;;;;4.40;2.50;;;5.40;83.00;;;;;;5090777;28;20474;-70
2021/01/20 02:22:46;;;;;;;4.70;2.47;;;5.10;82.90;;;;;;5089584;28;20167;-70
2021/01/20 02:25:37;;;;;;;6.68;3.03;;;5.20;83.30;;;;;;5090983;28;20423;-69
2021/01/20 02:28:20;;;;;;;3.85;2.33;;;5.10;83.30;;;;;;5088421;28;20078;-70
2021/01/20 02:30:47;;;;;;;7.07;2.83;;;5.20;83.30;;;;;;5093497;28;20075;-70
2021/01/20 02:33:22;;;;;;;7.07;2.92;;;5.10;83.00;;;;;;5092533;28;20059;-69
2021/01/20 02:36:03;;;;;;;5.25;2.65;;;5.10;83.50;;;;;;5095242;28;20067;-70
2021/01/20 02:38:31;;;;;;;5.35;2.75;;;5.20;83.00;;;;;;5095702;28;20501;-70
2021/01/20 02:40:57;;;;;;;5.35;2.47;;;5.10;82.80;;;;;;5093090;28;20117;-70
2021/01/20 02:43:27;;;;;;;4.80;2.42;;;5.10;83.10;;;;;;5095062;28;21368;-70
2021/01/20 02:45:53;;;;;;;6.50;2.58;;;5.40;83.10;;;;;;5093036;28;20044;-70
2021/01/20 02:48:20;;;;;;;4.30;2.58;;;5.30;82.80;;;;;;5092286;27;20044;-68
2021/01/20 02:50:46;;;;;;;4.10;2.55;;;5.30;82.60;;;;;;5095939;28;20097;-70
2021/01/20 02:53:16;;;;;;;6.13;2.08;;;5.30;82.40;;;;;;5093488;28;20085;-70
2021/01/20 02:55:55;;;;;;;4.72;2.25;;;5.50;82.40;;;;;;5095087;28;20055;-70
2021/01/20 02:58:25;;;;;;;4.20;2.35;;;5.30;82.10;;;;;;5093811;28;20056;-70
2021/01/20 03:00:53;;;;;;;5.05;2.80;;;5.60;82.40;;;;;;5099448;27;20055;-70
2021/01/20 03:03:21;;;;;;;7.57;2.22;;;5.30;82.10;;;;;;5094143;28;20096;-71
2021/01/20 03:05:49;;;;;;;5.72;2.45;;;5.60;81.90;;;;;;5095359;28;20146;-69
2021/01/20 03:08:16;;;;;;;4.22;2.13;;;5.50;82.00;;;;;;5093435;28;20129;-69
2021/01/20 03:10:43;;;;;;;7.97;2.10;;;5.30;81.40;;;;;;5103580;27;20043;-70
2021/01/20 03:13:09;;;;;;;3.47;2.28;;;5.50;81.80;;;;;;5095211;27;20438;-71
2021/01/20 03:15:39;;;;;;;6.70;2.45;;;5.70;82.10;;;;;;5096298;28;20414;-69
2021/01/20 03:18:06;;;;;;;3.87;2.37;;;5.50;81.60;;;;;;5095775;28;20048;-69
2021/01/20 03:20:33;;;;;;;4.13;2.40;;;5.50;81.90;;;;;;5095534;28;20362;-69
2021/01/20 03:22:59;;;;;;;7.40;2.58;;;5.50;82.00;;;;;;5091654;28;20132;-70
2021/01/20 03:25:27;;;;;;;4.35;2.20;;;5.40;82.00;;;;;;5094209;28;20490;-69
2021/01/20 03:27:54;;;;;;;5.03;2.28;;;5.30;82.10;;;;;;5092444;28;20406;-69
2021/01/20 03:30:21;;;;;;;3.78;2.15;;;5.40;82.20;;;;;;5103786;28;20110;-70
2021/01/20 03:32:47;;;;;;;6.10;2.47;;;5.40;82.60;;;;;;5091045;28;20086;-70
2021/01/20 03:35:14;;;;;;;4.70;2.45;;;5.40;82.70;;;;;;5094532;28;20052;-70
2021/01/20 03:37:40;;;;;;;5.30;2.83;;;5.30;82.70;;;;;;5092864;28;20075;-69
2021/01/20 03:40:08;;;;;;;5.03;2.60;;;5.30;82.80;;;;;;5096849;28;20048;-69
2021/01/20 03:42:38;;;;;;;6.65;2.92;;;5.40;83.30;;;;;;5092527;28;20047;-70
2021/01/20 03:45:05;;;;;;;5.28;3.08;;;5.20;83.30;;;;;;5095969;27;20077;-71
2021/01/20 03:47:31;;;;;;;6.97;2.83;;;5.20;83.60;;;;;;5095018;28;20134;-70
2021/01/20 03:49:58;;;;;;;6.95;2.70;;;5.10;83.60;;;;;;5091479;28;20155;-70
2021/01/20 03:52:25;;;;;;;4.18;2.42;;;5.10;83.90;;;;;;5092030;28;20148;-70
2021/01/20 03:54:51;;;;;;;6.63;3.15;;;5.10;83.90;;;;;;5091933;28;20083;-70
2021/01/20 03:57:18;;;;;;;5.15;2.80;;;5.20;84.40;;;;;;5100304;27;20044;-70
2021/01/20 03:59:44;;;;;;;4.43;2.58;;;5.00;84.30;;;;;;5094135;28;20348;-70
2021/01/20 04:02:10;;;;;;;4.43;2.40;;;5.00;84.30;;;;;;5085591;28;20051;-71
2021/01/20 04:04:37;;;;;;;5.13;2.60;;;4.90;84.60;;;;;;5094194;28;20078;-70
2021/01/20 04:07:03;;;;;;;6.20;2.55;;;4.90;84.60;;;;;;5091183;28;20044;-70
2021/01/20 04:09:30;;;;;;;5.90;2.95;;;4.90;84.60;;;;;;5095110;28;20602;-69
2021/01/20 04:11:56;;;;;;;6.55;2.63;;;5.00;85.00;;;;;;5094186;28;20047;-69
2021/01/20 04:14:23;;;;;;;5.35;2.13;;;4.80;85.10;;;;;;5108832;27;20152;-70
2021/01/20 04:16:49;;;;;;;5.15;2.88;;;5.00;85.50;;;;;;5093434;28;20150;-70
2021/01/20 04:19:15;;;;;;;4.80;2.58;;;4.80;85.50;;;;;;5093495;28;20044;-69
2021/01/20 04:21:42;;;;;;;4.60;2.33;;;4.80;85.60;;;;;;5095171;28;20530;-70
2021/01/20 04:24:10;;;;;;;8.98;2.63;;;4.70;85.70;;;;;;5094776;28;20533;-70
2021/01/20 04:26:37;;;;;;;4.45;2.53;;;4.70;86.00;;;;;;5091659;28;20126;-69
2021/01/20 04:29:03;;;;;;;5.68;2.58;;;4.80;85.90;;;;;;5092070;28;20067;-70
2021/01/20 04:31:30;;;;;;;4.60;2.75;;;4.80;86.20;;;;;;5090028;28;20075;-70
2021/01/20 04:33:56;;;;;;;5.57;3.13;;;4.70;86.30;;;;;;5098366;28;20468;-70
2021/01/20 04:36:23;;;;;;;8.98;3.20;;;4.70;86.50;;;;;;5093334;28;20097;-69
2021/01/20 04:38:49;;;;;;;6.47;3.22;;;4.70;86.60;;;;;;5093379;27;20135;-70
2021/01/20 04:41:16;;;;;;;4.60;2.67;;;4.70;86.70;;;;;;5099566;28;20101;-69
2021/01/20 04:43:43;;;;;;;5.03;2.80;;;4.90;87.10;;;;;;5093642;28;20134;-70
2021/01/20 04:46:11;;;;;;;4.78;2.63;;;5.00;87.10;;;;;;5091803;28;20451;-70
2021/01/20 04:48:38;;;;;;;4.70;2.85;;;4.80;87.20;;;;;;5091320;28;20094;-70
2021/01/20 04:51:06;;;;;;;5.63;3.05;;;4.70;86.90;;;;;;5089351;28;20062;-69
2021/01/20 04:53:37;;;;;;;7.75;2.92;;;4.60;86.90;;;;;;5094687;28;20051;-70
2021/01/20 04:56:11;;;;;;;9.27;3.22;;;4.80;86.70;;;;;;5090718;28;20063;-69
2021/01/20 04:58:38;;;;;;;5.38;2.95;;;4.90;86.50;;;;;;5100207;28;20854;-68
2021/01/20 05:01:04;;;;;;;5.82;2.83;;;4.90;86.60;;;;;;5091781;28;20052;-69
2021/01/20 05:03:31;;;;;;;8.70;2.83;;;5.00;86.40;;;;;;5091357;28;20051;-70
2021/01/20 05:05:58;;;;;;;7.10;2.55;;;5.00;86.10;;;;;;5090970;28;20048;-69
2021/01/20 05:08:25;;;;;;;5.70;2.70;;;5.00;85.70;;;;;;5091618;28;20079;-68
2021/01/20 05:10:51;;;;;;;3.70;2.20;;;5.00;85.80;;;;;;5091299;28;20048;-69
2021/01/20 05:13:29;;;;;;;6.53;2.88;;;5.30;85.90;;;;;;5101815;28;20084;-68
2021/01/20 05:15:56;;;;;;;5.68;2.92;;;5.10;85.60;;;;;;5109006;28;20122;-69
2021/01/20 05:18:23;;;;;;;4.75;2.53;;;5.00;85.60;;;;;;5107523;28;20491;-70
2021/01/20 05:20:51;;;;;;;4.90;2.63;;;5.10;85.40;;;;;;5109030;28;20455;-70
2021/01/20 05:23:24;;;;;;;4.53;2.42;;;5.10;85.50;;;;;;5108679;28;20124;-69
2021/01/20 05:25:51;;;;;;;4.75;2.50;;;5.10;85.60;;;;;;5107810;28;20163;-69
2021/01/20 05:28:23;;;;;;;6.90;2.63;;;5.20;85.70;;;;;;5112694;28;20139;-69
2021/01/20 05:30:52;;;;;;;4.45;2.83;;;5.20;85.30;;;;;;5108172;28;20183;-69
2021/01/20 05:33:24;;;;;;;6.55;2.70;;;5.20;85.10;;;;;;5110285;28;20487;-70
2021/01/20 05:36:05;;;;;;;5.25;2.70;;;5.30;84.80;;;;;;5108077;28;20075;-69
2021/01/20 05:38:46;;;;;;;5.85;2.65;;;5.30;85.00;;;;;;5109208;27;20090;-70
2021/01/20 05:41:22;;;;;;;5.05;2.42;;;5.50;84.60;;;;;;5105325;28;20529;-70
2021/01/20 05:43:50;;;;;;;4.22;2.47;;;5.40;84.10;;;;;;5103913;28;20398;-70
2021/01/20 05:46:37;;;;;;;5.05;2.50;;;5.40;83.70;;;;;;5106180;28;20048;-70
2021/01/20 05:49:05;;;;;;;4.50;2.35;;;5.40;83.80;;;;;;5104608;28;20040;-70
2021/01/20 05:51:39;;;;;;;5.00;2.22;;;5.50;83.50;;;;;;5109512;28;20044;-71
2021/01/20 05:54:05;;;;;;;5.75;2.63;;;5.50;83.80;;;;;;5105681;28;20116;-70
2021/01/20 05:56:32;;;;;;;7.28;2.67;;;5.80;83.90;;;;;;5109812;28;20455;-70
2021/01/20 05:58:58;;;;;;;4.78;2.47;;;5.50;83.60;;;;;;5108563;28;20093;-69
2021/01/20 06:01:26;;;;;;;6.55;2.47;;;5.60;83.70;;;;;;5103625;28;20084;-70
2021/01/20 06:03:53;;;;;;;5.18;2.50;;;5.60;83.80;;;;;;5110794;28;20075;-71
2021/01/20 06:06:21;;;;;;;5.20;2.63;;;5.60;84.10;;;;;;5107204;28;20207;-69
2021/01/20 06:08:48;;;;;;;5.00;2.30;;;5.50;84.10;;;;;;5103213;28;20125;-70
2021/01/20 06:11:14;;;;;;;6.40;2.20;;;5.50;84.10;;;;;;5107260;28;20441;-70
2021/01/20 06:13:40;;;;;;;4.43;2.55;;;5.60;84.10;;;;;;5096360;28;20044;-70
2021/01/20 06:16:18;;;;;;;6.03;3.40;;;5.70;84.40;;;;;;5103937;28;20491;-70
2021/01/20 06:18:47;;;;;;;6.78;3.28;;;5.50;84.10;;;;;;5107322;28;20513;-69
2021/01/20 06:21:15;;;;;;;5.70;3.10;;;5.40;84.10;;;;;;5105214;28;20458;-70
2021/01/20 06:23:48;;;;;;;6.50;3.47;;;5.40;84.30;;;;;;5105706;28;20083;-69
2021/01/20 06:26:16;;;;;;;5.70;3.13;;;5.60;84.60;;;;;;5107206;28;20079;-69
2021/01/20 06:28:51;;;;;;;8.07;4.28;;;5.50;84.50;;;;;;5108951;28;20891;-69
2021/01/20 06:31:18;;;;;;;8.35;3.58;;;5.60;84.20;;;;;;5104704;28;20086;-70
2021/01/20 06:33:45;;;;;;;6.00;3.05;;;5.60;83.50;;;;;;5107525;28;20088;-69
2021/01/20 06:36:32;;;;;;;7.35;3.08;;;5.90;83.30;;;;;;5109697;28;20046;-69
2021/01/20 06:39:00;;;;;;;8.77;2.92;;;5.70;83.00;;;;;;5103646;28;20051;-70
2021/01/20 06:41:39;;;;;;;4.65;2.75;;;5.90;83.00;;;;;;5101624;28;20048;-70
2021/01/20 06:44:10;;;;;;;9.93;2.90;;;5.70;82.60;;;;;;5102436;28;20109;-70
2021/01/20 06:46:37;;;;;;;6.55;2.60;;;5.70;83.40;;;;;;5107974;28;20082;-69
2021/01/20 06:49:05;;;;;;;3.67;2.53;;;5.70;82.40;;;;;;5106626;28;20043;-70
2021/01/20 06:51:33;;;;;;;5.45;2.70;;;5.80;82.40;;;;;;5103759;28;20040;-69
2021/01/20 06:54:10;;;;;;;3.85;2.45;;;5.70;82.20;;;;;;5110362;28;20480;-70
2021/01/20 06:56:46;;;;;;;4.88;2.67;;;5.80;82.70;;;;;;5106554;28;20075;-70
2021/01/20 06:59:13;;;;;;;5.85;2.60;;;5.80;82.00;;;;;;5107900;28;20110;-69
2021/01/20 07:01:39;;;;;;;4.53;2.42;;;5.80;81.60;;;;;;5105418;28;20125;-69
2021/01/20 07:04:06;;;;;;;6.75;2.65;;;6.20;81.30;;;;;;5108895;28;20375;-69
2021/01/20 07:06:35;;;;;;;4.65;2.42;;;6.10;82.40;;;;;;5106846;28;20075;-70
2021/01/20 07:09:09;;;;;;;5.25;2.22;;;5.90;81.10;;;;;;5103144;28;20071;-69
2021/01/20 07:11:57;;;;;;;9.07;2.42;;;5.90;80.90;;;;;;5104148;28;21297;-71
2021/01/20 07:14:29;;;;;;;5.53;2.20;;;6.00;80.60;;;;;;5101046;28;20043;-69
2021/01/20 07:16:57;;;;;;;5.72;2.65;;;6.00;80.70;;;;;;5105375;28;20130;-69
2021/01/20 07:19:25;;;;;;;8.25;2.15;;;6.00;80.40;;;;;;5101845;28;20658;-69
2021/01/20 07:21:52;;;;;;;6.03;2.20;;;6.10;80.10;;;;;;5100503;27;20087;-69
2021/01/20 07:24:19;;;;;;;6.90;2.33;;;6.10;79.50;;;;;;5105680;28;20131;-69
2021/01/20 07:26:47;;;;;;;3.58;1.88;;;6.20;78.20;;;;;;5106891;28;20101;-70
2021/01/20 07:29:17;;;;;;;4.80;1.90;;;6.30;78.00;;;;;;5111723;28;20144;-69
2021/01/20 07:31:48;;;;;;;6.72;2.00;;;6.30;77.60;;;;;;5105916;28;20138;-69
2021/01/20 07:34:15;;;;;;;2.55;1.95;;;6.40;77.30;;;;;;5100072;27;20110;-70
2021/01/20 07:36:42;;;;;;;4.40;2.17;;;6.40;76.70;;;;;;5109948;28;20104;-70
2021/01/20 07:39:22;;;;;;;5.80;1.90;;;6.50;76.20;;;;;;5106205;28;20479;-70
2021/01/20 07:41:58;;;;;;;2.88;1.83;;;6.50;75.80;;;;;;5106547;27;20060;-70
2021/01/20 07:44:26;;;;;;;2.40;1.80;;;6.50;75.90;;;;;;5109572;28;20043;-69
2021/01/20 07:47:00;;;;;;;2.92;1.73;;;6.60;75.70;;;;;;5108305;27;20097;-70
2021/01/20 07:49:27;;;;;;;4.15;1.80;;;6.80;76.00;;;;;;5109680;28;20039;-69
2021/01/20 07:52:00;;;;;;;1.98;1.52;;;6.60;75.50;;;;;;5109704;28;20040;-69
2021/01/20 07:54:37;;;;;;;3.13;1.63;;;6.60;75.30;;;;;;5108026;28;20075;-70
2021/01/20 07:57:06;;;;;;;3.55;2.03;;;6.70;75.00;;;;;;5111787;28;20044;-69
2021/01/20 07:59:33;;;;;;;2.92;1.83;;;6.60;74.60;;;;;;5109033;28;20460;-69
2021/01/20 08:02:09;;;;;;;3.13;1.70;;;6.70;74.90;;;;;;5105924;27;20077;-70
2021/01/20 08:04:36;;;;;;;5.18;2.00;;;6.70;75.20;;;;;;5105268;27;20071;-69
2021/01/20 08:07:03;;;;;;;5.57;2.00;;;6.70;74.90;;;;;;5105408;28;20063;-68
2021/01/20 08:09:36;;;;;;;3.28;1.90;;;6.70;74.90;;;;;;5107889;28;20076;-68
2021/01/20 08:12:05;;;;;;;3.78;2.10;;;6.70;74.90;;;;;;5109157;28;20070;-69
2021/01/20 08:14:36;;;;;;;6.03;2.05;;;6.60;75.10;;;;;;5103920;28;20430;-69
2021/01/20 08:17:05;;;;;;;5.53;2.38;;;6.60;75.40;;;;;;5105430;27;20440;-69
2021/01/20 08:19:34;;;;;;;3.53;2.17;;;6.70;75.50;;;;;;5106319;28;20394;-70
2021/01/20 08:22:06;;;;;;;7.15;2.90;;;6.60;75.60;;;;;;5102547;27;20054;-69
2021/01/20 08:24:33;;;;;;;5.00;2.45;;;6.60;76.00;;;;;;5102476;28;20044;-70
2021/01/20 08:27:00;;;;;;;4.78;2.10;;;6.60;75.60;;;;;;5106095;27;20087;-69
2021/01/20 08:29:27;;;;;;;7.97;2.85;;;6.60;75.80;;;;;;5105320;28;20439;-69
2021/01/20 08:32:11;;;;;;;4.35;2.33;;;6.60;75.60;;;;;;5106872;27;20498;-69
2021/01/20 08:34:42;;;;;;;6.63;2.40;;;6.60;76.40;;;;;;5108184;28;20044;-69
2021/01/20 08:37:21;;;;;;;4.25;2.28;;;6.70;75.80;;;;;;5110384;27;20114;-70
2021/01/20 08:39:55;;;;;;;4.57;2.10;;;6.60;75.60;;;;;;5103397;28;20472;-71
2021/01/20 08:42:35;;;;;;;7.85;2.20;;;6.70;75.60;;;;;;5094878;28;20098;-70
2021/01/20 08:45:07;;;;;;;7.90;2.70;;;6.70;75.90;;;;;;5100462;27;20043;-69
2021/01/20 08:47:35;;;;;;;7.25;2.33;;;6.70;76.00;;;;;;5101665;27;20075;-69
2021/01/20 08:50:03;;;;;;;7.05;2.70;;;6.60;76.30;;;;;;5102723;28;20062;-69
2021/01/20 08:52:41;;;;;;;7.10;2.63;;;6.60;76.30;;;;;;5100647;28;20062;-70
2021/01/20 08:55:10;;;;;;;6.40;2.58;;;6.60;76.10;;;;;;5103763;28;20124;-70
2021/01/20 08:57:36;;;;;;;4.05;2.20;;;6.70;75.80;;;;;;5104222;28;20457;-70
2021/01/20 09:00:04;;;;;;;6.10;2.55;;;6.70;75.80;;;;;;5105640;28;20051;-69
2021/01/20 09:02:33;;;;;;;5.88;2.45;;;6.70;75.90;;;;;;5102136;28;20048;-69
2021/01/20 09:05:14;;;;;;;6.57;2.55;;;6.80;76.00;;;;;;5102767;28;20052;-69
2021/01/20 09:07:40;;;;;;;6.80;2.80;;;6.70;76.30;;;;;;5106617;28;20410;-69
2021/01/20 09:10:07;;;;;;;6.03;2.78;;;6.70;76.40;;;;;;5104446;27;20060;-70
2021/01/20 09:12:34;;;;;;;4.60;2.72;;;6.80;76.40;;;;;;5101572;28;20129;-69
2021/01/20 09:15:02;;;;;;;8.55;3.20;;;6.80;76.20;;;;;;5104862;27;20048;-70
2021/01/20 09:17:28;;;;;;;6.13;2.75;;;6.80;76.50;;;;;;5101416;28;20086;-69
2021/01/20 09:19:55;;;;;;;5.68;2.53;;;6.80;76.80;;;;;;5106921;28;20118;-69
2021/01/20 09:22:22;;;;;;;5.43;2.53;;;6.80;76.50;;;;;;5101793;28;20082;-69
2021/01/20 09:24:48;;;;;;;4.63;2.50;;;6.90;76.20;;;;;;5097897;27;20096;-70
2021/01/20 09:27:14;;;;;;;5.70;2.35;;;6.80;76.60;;;;;;5103922;28;20147;-70
2021/01/20 09:29:40;;;;;;;6.13;2.70;;;6.90;76.10;;;;;;5102659;28;20069;-69
2021/01/20 09:32:07;;;;;;;4.80;2.78;;;6.90;76.40;;;;;;5104729;27;20093;-71
2021/01/20 09:34:33;;;;;;;6.15;2.67;;;6.90;76.40;;;;;;5104481;28;20047;-70
2021/01/20 09:36:59;;;;;;;5.75;2.47;;;7.00;76.30;;;;;;5107543;27;20085;-69
2021/01/20 09:39:26;;;;;;;4.88;2.47;;;7.00;76.00;;;;;;5104248;28;20127;-70
2021/01/20 09:41:52;;;;;;;5.93;2.55;;;7.00;76.10;;;;;;5105408;27;20043;-69
2021/01/20 09:44:18;;;;;;;4.63;2.30;;;7.00;75.60;;;;;;5107306;28;20078;-71
2021/01/20 09:46:45;;;;;;;6.53;2.47;;;7.00;75.50;;;;;;5104370;28;20101;-69
2021/01/20 09:49:11;;;;;;;6.57;2.33;;;7.10;75.60;;;;;;5098826;28;20765;-68
2021/01/20 09:51:37;;;;;;;8.35;2.45;;;7.10;75.30;;;;;;5107373;28;20164;-68
2021/01/20 09:54:04;;;;;;;3.50;2.00;;;7.20;75.00;;;;;;5099216;27;20104;-69
2021/01/20 09:56:31;;;;;;;4.25;2.00;;;7.20;75.00;;;;;;5100996;28;20135;-68
2021/01/20 09:58:58;;;;;;;5.70;2.17;;;7.30;74.90;;;;;;5102860;28;20047;-69
2021/01/20 10:01:24;;;;;;;5.78;2.50;;;7.30;74.80;;;;;;5101630;28;20094;-69
2021/01/20 10:03:52;;;;;;;5.05;2.20;;;7.40;74.60;;;;;;5106386;27;20054;-69
2021/01/20 10:06:18;;;;;;;7.15;2.53;;;7.40;73.90;;;;;;5103732;28;20118;-69
2021/01/20 10:08:44;;;;;;;4.57;2.00;;;7.50;73.70;;;;;;5103031;28;20520;-67
2021/01/20 10:11:10;;;;;;;7.55;3.60;;;7.50;73.70;;;;;;5100595;28;20048;-71
2021/01/20 10:13:37;;;;;;;5.45;2.40;;;7.60;73.20;;;;;;5099896;28;20549;-71
2021/01/20 10:16:04;;;;;;;5.72;2.47;;;7.70;73.20;;;;;;5101724;28;20411;-70
2021/01/20 10:18:31;;;;;;;4.82;2.15;;;7.70;72.90;;;;;;5106781;28;20429;-71
2021/01/20 10:20:58;;;;;;;4.38;2.30;;;7.80;72.50;;;;;;5102934;28;20056;-69
2021/01/20 10:23:24;;;;;;;7.35;2.38;;;7.70;71.90;;;;;;5105929;28;20054;-69
2021/01/20 10:25:54;;;;;;;3.10;2.03;;;7.80;71.90;;;;;;5103858;28;20046;-69
2021/01/20 10:28:20;;;;;;;8.52;1.90;;;7.70;71.80;;;;;;5102939;28;20070;-71
2021/01/20 10:30:47;;;;;;;4.05;2.20;;;7.80;72.10;;;;;;5103731;28;20506;-71
2021/01/20 10:33:13;;;;;;;4.72;1.90;;;7.80;72.10;;;;;;5101307;28;20079;-70
2021/01/20 10:35:40;;;;;;;4.75;2.50;;;7.80;71.70;;;;;;5103179;28;20052;-68
2021/01/20 10:38:06;;;;;;;11.23;2.33;;;7.90;71.90;;;;;;5097406;28;20451;-68
2021/01/20 10:40:32;;;;;;;7.53;2.28;;;8.00;71.60;;;;;;5099015;28;20052;-68
2021/01/20 10:42:59;;;;;;;5.72;2.45;;;8.00;71.70;;;;;;5105118;28;20139;-69
2021/01/20 10:45:25;;;;;;;5.05;2.20;;;8.00;71.40;;;;;;5103165;28;20097;-68
2021/01/20 10:48:08;;;;;;;4.95;1.90;;;8.10;71.30;;;;;;5097690;28;20063;-68
2021/01/20 10:50:35;;;;;;;5.82;2.22;;;8.00;71.10;;;;;;5107972;28;20047;-67
2021/01/20 10:53:02;;;;;;;16.60;2.00;;;8.10;71.20;;;;;;5105314;27;20075;-67
2021/01/20 10:55:28;;;;;;;3.75;1.90;;;8.10;70.90;;;;;;5105234;28;20157;-69
2021/01/20 10:57:55;;;;;;;6.25;2.50;;;8.10;71.20;;;;;;5107002;28;20063;-69
2021/01/20 11:00:22;;;;;;;3.75;2.08;;;8.20;71.30;;;;;;5104292;28;20082;-70
2021/01/20 11:02:48;;;;;;;6.95;2.00;;;8.20;70.90;;;;;;5108042;28;20452;-67
2021/01/20 11:05:15;;;;;;;6.50;1.90;;;8.20;71.10;;;;;;5107655;28;20070;-69
2021/01/20 11:07:41;;;;;;;7.65;1.70;;;8.30;71.10;;;;;;5103524;28;20444;-68
2021/01/20 11:10:08;;;;;;;5.28;2.08;;;8.30;70.80;;;;;;5104894;28;20151;-68
2021/01/20 11:12:34;;;;;;;4.38;2.08;;;8.40;70.80;;;;;;5101589;28;20142;-68
2021/01/20 11:15:00;;;;;;;8.23;2.05;;;8.40;70.80;;;;;;5107071;28;20052;-68
2021/01/20 11:17:27;;;;;;;3.17;1.83;;;8.60;70.90;;;;;;5106425;27;20495;-68
2021/01/20 11:19:54;;;;;;;4.55;1.80;;;8.60;70.20;;;;;;5105736;28;20125;-66
2021/01/20 11:22:21;;;;;;;5.43;2.10;;;8.70;69.90;;;;;;5106830;28;20079;-68
2021/01/20 11:24:56;;;;;;;6.68;1.83;;;8.80;70.00;;;;;;5103063;28;20407;-67
2021/01/20 11:27:22;;;;;;;5.93;2.30;;;8.80;69.70;;;;;;5105304;28;20044;-68
2021/01/20 11:29:48;;;;;;;6.07;1.90;;;8.80;69.50;;;;;;5108159;28;20071;-68
2021/01/20 11:32:14;;;;;;;2.92;1.83;;;8.90;69.50;;;;;;5102259;28;20097;-68
2021/01/20 11:34:41;;;;;;;4.88;1.80;;;8.90;69.50;;;;;;5098377;28;20044;-67
2021/01/20 11:37:08;;;;;;;5.82;2.13;;;8.90;69.70;;;;;;5099468;28;20059;-68
2021/01/20 11:39:36;;;;;;;4.20;2.20;;;8.90;69.40;;;;;;5104307;28;20054;-68
2021/01/20 11:42:03;;;;;;;4.60;1.80;;;9.00;69.40;;;;;;5101700;28;20075;-69
2021/01/20 11:44:29;;;;;;;7.55;2.28;;;9.00;69.40;;;;;;5102458;28;20134;-69
2021/01/20 11:46:56;;;;;;;3.40;1.83;;;9.00;69.20;;;;;;5104669;28;20071;-68
2021/01/20 11:49:22;;;;;;;4.43;1.65;;;9.00;69.00;;;;;;5105699;28;20051;-70
2021/01/20 11:51:48;;;;;;;3.38;1.88;;;9.10;68.50;;;;;;5106434;27;20128;-68
2021/01/20 11:54:15;;;;;;;4.18;1.85;;;9.20;68.70;;;;;;5101838;28;20466;-69
2021/01/20 11:56:41;;;;;;;4.28;1.70;;;9.20;68.30;;;;;;5106745;28;20047;-68
2021/01/20 11:59:07;;;;;;;2.55;1.40;;;9.30;68.20;;;;;;5107466;28;20446;-68
2021/01/20 12:01:34;;;;;;;3.95;1.50;;;9.40;68.00;;;;;;5106411;28;20055;-69
2021/01/20 12:04:03;;;;;;;2.83;1.60;;;9.50;67.90;;;;;;5103029;28;20071;-69
2021/01/20 12:06:30;;;;;;;5.80;2.10;;;9.50;67.50;;;;;;5108656;28;20077;-68
2021/01/20 12:08:56;;;;;;;3.95;1.83;;;9.60;68.00;;;;;;5102129;28;20067;-68
2021/01/20 12:11:23;;;;;;;2.78;1.85;;;9.70;67.60;;;;;;5091481;27;20135;-68
2021/01/20 12:13:49;;;;;;;6.35;1.88;;;9.70;67.40;;;;;;5088245;28;20154;-68
2021/01/20 12:16:16;;;;;;;3.63;1.40;;;9.80;67.60;;;;;;5089210;28;20586;-72
2021/01/20 12:18:43;;;;;;;4.93;1.80;;;9.70;67.00;;;;;;5090545;28;20474;-66
2021/01/20 12:21:09;;;;;;;6.38;1.70;;;9.80;67.50;;;;;;5088352;28;20467;-70
2021/01/20 12:23:35;;;;;;;4.82;1.70;;;9.70;66.70;;;;;;5092441;28;20502;-70
2021/01/20 12:26:02;;;;;;;4.95;1.60;;;9.80;67.00;;;;;;5087637;28;20123;-72
2021/01/20 12:28:29;;;;;;;5.78;1.90;;;9.80;66.70;;;;;;5090588;28;20097;-73
2021/01/20 12:30:55;;;;;;;6.78;1.50;;;9.90;66.70;;;;;;5087051;28;20463;-72
2021/01/20 12:33:21;;;;;;;4.35;1.42;;;9.90;66.30;;;;;;5090865;28;20117;-72
2021/01/20 12:35:48;;;;;;;3.85;1.70;;;10.00;65.60;;;;;;5088970;28;20083;-70
2021/01/20 12:38:14;;;;;;;5.53;1.90;;;10.00;65.70;;;;;;5091449;28;20087;-70
2021/01/20 12:40:40;;;;;;;6.93;2.00;;;10.00;66.20;;;;;;5085485;28;20589;-70
2021/01/20 12:43:07;;;;;;;8.15;1.83;;;9.90;67.30;;;;;;5090281;27;20121;-69
2021/01/20 12:45:33;;;;;;;5.75;2.00;;;9.90;68.10;;;;;;5089584;28;20544;-69
2021/01/20 12:48:02;;;;;;;5.38;1.70;;;10.00;67.20;;;;;;5091480;28;20055;-69
2021/01/20 12:50:29;;;;;;;4.57;1.87;;;10.00;66.80;;;;;;5090736;28;20140;-70
2021/01/20 12:52:58;;;;;;;11.73;2.10;;;10.00;66.80;;;;;;5088427;28;20059;-70
2021/01/20 12:55:26;;;;;;;4.00;1.77;;;10.00;67.10;;;;;;5087038;28;20213;-70
2021/01/20 12:57:53;;;;;;;11.18;2.05;;;10.10;66.50;;;;;;5089260;28;20442;-70
2021/01/20 13:00:20;;;;;;;3.53;2.17;;;10.10;66.40;;;;;;5096461;28;20048;-69
2021/01/20 13:02:46;;;;;;;3.22;1.63;;;10.10;66.80;;;;;;5088824;28;20178;-69